createdAt,value
2023-08-17T00:02:06.058Z,7.70
2023-08-17T00:05:15.063Z,7.82
2023-08-17T00:08:16.871Z,7.57
2023-08-17T00:11:21.480Z,8.35
2023-08-17T00:14:23.393Z,6.80
2023-08-17T00:17:25.419Z,8.13
2023-08-17T00:20:29.804Z,10.73
2023-08-17T00:23:44.254Z,11.10
2023-08-17T00:26:45.987Z,14.32
2023-08-17T00:29:52.058Z,10.98
2023-08-17T00:32:53.788Z,8.80
2023-08-17T00:35:56.867Z,13.00
2023-08-17T00:38:58.786Z,11.50
2023-08-17T00:42:00.515Z,9.80
2023-08-17T00:45:08.153Z,7.13
2023-08-17T00:48:12.437Z,9.82
2023-08-17T00:51:18.641Z,9.27
2023-08-17T00:54:25.595Z,9.85
2023-08-17T00:57:29.411Z,7.25
2023-08-17T01:00:36.358Z,8.13
2023-08-17T01:03:40.725Z,8.65
2023-08-17T01:06:46.953Z,8.57
2023-08-17T01:09:51.689Z,12.80
2023-08-17T01:13:08.919Z,18.50
2023-08-17T01:16:17.052Z,15.15
2023-08-17T01:19:26.880Z,14.40
2023-08-17T01:22:36.466Z,12.70
2023-08-17T01:25:41.353Z,10.88
2023-08-17T01:28:45.986Z,9.55
2023-08-17T01:32:00.554Z,12.43
2023-08-17T01:35:10.513Z,12.27
2023-08-17T01:38:21.641Z,11.68
2023-08-17T01:41:26.723Z,7.30
2023-08-17T01:44:36.563Z,8.07
2023-08-17T01:47:43.939Z,7.68
2023-08-17T01:50:45.668Z,12.07
2023-08-17T01:53:49.577Z,9.25
2023-08-17T01:56:53.871Z,9.18
2023-08-17T02:00:00.448Z,12.18
2023-08-17T02:03:02.252Z,8.80
2023-08-17T02:06:06.673Z,8.30
2023-08-17T02:09:11.162Z,8.90
2023-08-17T02:12:14.260Z,9.85
2023-08-17T02:18:34.232Z,8.63
2023-08-17T02:21:37.565Z,7.45
2023-08-17T02:24:39.275Z,7.57
2023-08-17T02:27:48.320Z,8.50
2023-08-17T02:30:51.246Z,8.32
2023-08-17T02:33:57.245Z,9.90
2023-08-17T02:37:05.726Z,8.45
2023-08-17T02:40:08.562Z,7.50
2023-08-17T02:43:13.984Z,9.63
2023-08-17T02:46:15.861Z,10.40
2023-08-17T02:49:20.374Z,10.82
2023-08-17T02:52:23.381Z,9.20
2023-08-17T02:55:26.747Z,10.27
2023-08-17T02:58:32.835Z,7.97
2023-08-17T03:01:34.700Z,12.95
2023-08-17T03:04:37.685Z,8.05
2023-08-17T03:07:41.892Z,9.48
2023-08-17T03:10:49.357Z,9.80
2023-08-17T03:13:54.403Z,8.05
2023-08-17T03:16:56.191Z,7.97
2023-08-17T03:19:59.591Z,8.55
2023-08-17T03:23:01.391Z,8.30
2023-08-17T03:26:09.979Z,9.90
2023-08-17T03:29:14.300Z,9.23
2023-08-17T03:32:17.731Z,9.05
2023-08-17T03:35:19.639Z,7.38
2023-08-17T03:38:21.683Z,10.27
2023-08-17T03:41:23.505Z,10.60
2023-08-17T03:44:30.464Z,9.18
2023-08-17T03:47:33.906Z,9.30
2023-08-17T03:50:35.647Z,8.40
2023-08-17T03:53:37.363Z,10.63
2023-08-17T03:56:40.681Z,9.27
2023-08-17T03:59:53.800Z,12.98
2023-08-17T04:02:55.540Z,9.52
2023-08-17T04:05:57.262Z,12.02
2023-08-17T04:09:01.922Z,11.65
2023-08-17T04:12:04.046Z,9.40
2023-08-17T04:15:07.824Z,9.20
2023-08-17T04:18:09.605Z,8.95
2023-08-17T04:21:11.397Z,14.23
2023-08-17T04:24:13.116Z,11.77
2023-08-17T04:27:18.727Z,10.73
2023-08-17T04:30:22.039Z,9.63
2023-08-17T04:33:23.730Z,11.05
2023-08-17T04:36:25.459Z,12.95
2023-08-17T04:39:27.164Z,11.93
2023-08-17T04:42:30.864Z,10.77
2023-08-17T04:45:37.695Z,9.55
2023-08-17T04:48:41.102Z,9.80
2023-08-17T04:51:46.532Z,9.32
2023-08-17T04:54:49.540Z,9.02
2023-08-17T04:57:52.973Z,8.57
2023-08-17T05:00:56.117Z,9.43
2023-08-17T05:04:00.473Z,8.50
2023-08-17T05:07:06.979Z,12.43
2023-08-17T05:10:09.287Z,9.70
2023-08-17T05:13:13.210Z,9.50
2023-08-17T05:16:17.545Z,9.52
2023-08-17T05:19:23.304Z,9.35
2023-08-17T05:22:26.869Z,11.57
2023-08-17T05:25:28.616Z,9.55
2023-08-17T05:28:32.927Z,25.85
2023-08-17T05:31:38.074Z,37.05
2023-08-17T05:34:48.409Z,17.02
2023-08-17T05:37:51.344Z,14.90
2023-08-17T05:40:58.322Z,17.58
2023-08-17T05:44:01.251Z,14.55
2023-08-17T05:47:04.721Z,40.13
2023-08-17T05:50:07.545Z,25.52
2023-08-17T05:53:13.341Z,14.73
2023-08-17T05:56:15.058Z,20.52
2023-08-17T05:59:23.722Z,14.90
2023-08-17T06:02:31.167Z,14.68
2023-08-17T06:05:32.853Z,13.60
2023-08-17T06:08:37.356Z,10.70
2023-08-17T06:11:39.114Z,16.42
2023-08-17T06:14:43.204Z,15.52
2023-08-17T06:17:47.958Z,25.15
2023-08-17T06:20:49.805Z,11.23
2023-08-17T06:23:51.602Z,21.17
2023-08-17T06:26:56.168Z,33.97
2023-08-17T06:29:59.509Z,17.27
2023-08-17T06:33:04.030Z,34.95
2023-08-17T06:36:10.404Z,40.08
2023-08-17T06:39:12.112Z,71.25
2023-08-17T06:42:18.078Z,15.13
2023-08-17T06:45:25.989Z,14.68
2023-08-17T06:48:32.323Z,19.33
2023-08-17T06:51:34.064Z,18.17
2023-08-17T06:54:37.475Z,25.02
2023-08-17T06:57:41.590Z,15.35
2023-08-17T07:00:55.010Z,11.73
2023-08-17T07:03:58.091Z,19.42
2023-08-17T07:06:59.943Z,12.75
2023-08-17T07:10:03.525Z,11.77
2023-08-17T07:13:07.854Z,10.93
2023-08-17T07:16:09.638Z,12.20
2023-08-17T07:19:14.028Z,12.65
2023-08-17T07:22:15.766Z,10.68
2023-08-17T07:25:19.744Z,10.23
2023-08-17T07:28:21.555Z,14.32
2023-08-17T07:31:25.128Z,10.32
2023-08-17T07:34:34.124Z,12.52
2023-08-17T07:37:38.296Z,10.68
2023-08-17T07:40:41.482Z,9.27
2023-08-17T07:43:43.178Z,14.82
2023-08-17T07:46:50.837Z,9.93
2023-08-17T07:50:01.195Z,10.70
2023-08-17T07:53:05.952Z,15.60
2023-08-17T07:56:09.832Z,9.15
2023-08-17T07:59:11.582Z,9.32
2023-08-17T08:02:18.702Z,9.63
2023-08-17T08:05:27.628Z,14.77
2023-08-17T08:11:31.091Z,8.95
2023-08-17T08:14:37.192Z,10.25
2023-08-17T08:17:44.697Z,7.90
2023-08-17T08:20:49.068Z,7.93
2023-08-17T08:24:04.986Z,8.55
2023-08-17T08:27:09.270Z,8.07
2023-08-17T08:30:11.388Z,11.02
2023-08-17T08:33:13.133Z,9.35
2023-08-17T08:36:18.112Z,9.30
2023-08-17T08:39:21.217Z,8.55
2023-08-17T08:42:24.140Z,8.23
2023-08-17T08:45:32.642Z,8.48
2023-08-17T08:48:40.593Z,8.43
2023-08-17T08:51:47.166Z,7.80
2023-08-17T08:54:57.790Z,13.35
2023-08-17T08:58:00.001Z,8.75
2023-08-17T09:01:09.235Z,9.27
2023-08-17T09:04:15.749Z,8.15
2023-08-17T09:07:23.494Z,8.38
2023-08-17T09:10:28.729Z,8.35
2023-08-17T09:13:31.186Z,12.15
2023-08-17T09:16:36.105Z,8.98
2023-08-17T09:19:42.855Z,7.13
2023-08-17T09:22:48.087Z,8.20
2023-08-17T09:25:52.050Z,10.93
2023-08-17T09:28:55.722Z,10.10
2023-08-17T09:31:57.796Z,10.52
2023-08-17T09:35:05.188Z,9.73
2023-08-17T09:38:13.289Z,8.80
2023-08-17T09:41:16.916Z,9.10
2023-08-17T09:44:24.266Z,9.00
2023-08-17T09:47:26.129Z,9.30
2023-08-17T09:50:29.326Z,9.18
2023-08-17T09:53:36.046Z,11.05
2023-08-17T09:56:37.913Z,9.70
2023-08-17T09:59:43.796Z,9.27
2023-08-17T10:02:47.601Z,8.90
2023-08-17T10:05:56.037Z,9.75
2023-08-17T10:09:00.309Z,9.18
2023-08-17T10:12:09.906Z,8.68
2023-08-17T10:15:19.437Z,8.63
2023-08-17T10:18:30.297Z,8.32
2023-08-17T10:21:45.561Z,8.38
2023-08-17T10:24:53.886Z,10.23
2023-08-17T10:28:00.038Z,8.63
2023-08-17T10:31:02.167Z,10.82
2023-08-17T10:34:06.279Z,10.25
2023-08-17T10:37:10.274Z,9.90
2023-08-17T10:40:16.816Z,9.30
2023-08-17T10:43:23.526Z,6.60
2023-08-17T10:46:35.518Z,6.97
2023-08-17T10:49:39.994Z,7.72
2023-08-17T10:55:58.316Z,8.30
2023-08-17T10:59:01.166Z,7.13
2023-08-17T11:02:03.004Z,7.63
2023-08-17T11:05:05.639Z,6.57
2023-08-17T11:08:20.806Z,10.25
2023-08-17T11:11:31.896Z,8.43
2023-08-17T11:15:01.474Z,11.73
2023-08-17T11:18:09.419Z,7.50
2023-08-17T11:21:12.159Z,12.23
2023-08-17T11:24:13.980Z,8.95
2023-08-17T11:27:17.181Z,6.60
2023-08-17T11:30:19.155Z,7.82
2023-08-17T11:33:21.369Z,6.85
2023-08-17T11:36:23.878Z,7.55
2023-08-17T11:39:25.612Z,8.85
2023-08-17T11:42:29.045Z,7.65
2023-08-17T11:45:31.088Z,8.90
2023-08-17T11:51:43.032Z,8.45
2023-08-17T11:54:45.252Z,6.90
2023-08-17T11:57:48.377Z,6.00
2023-08-17T12:00:50.430Z,6.95
2023-08-17T12:03:52.326Z,6.30
2023-08-17T12:06:55.147Z,8.27
2023-08-17T12:09:57.479Z,7.10
2023-08-17T12:13:00.766Z,9.00
2023-08-17T12:16:03.168Z,6.45
2023-08-17T12:19:05.798Z,7.53
2023-08-17T12:22:07.634Z,8.75
2023-08-17T12:25:10.457Z,6.60
2023-08-17T12:28:15.051Z,6.65
2023-08-17T12:31:22.509Z,6.10
2023-08-17T12:34:24.273Z,7.25
2023-08-17T12:37:25.978Z,7.45
2023-08-17T12:40:27.736Z,6.55
2023-08-17T12:43:30.849Z,8.95
2023-08-17T12:46:32.849Z,6.72
2023-08-17T12:49:39.558Z,6.97
2023-08-17T12:52:47.209Z,6.43
2023-08-17T12:55:49.385Z,6.00
2023-08-17T12:58:52.495Z,5.85
2023-08-17T13:01:54.198Z,6.90
2023-08-17T13:04:55.945Z,11.07
2023-08-17T13:07:57.792Z,7.35
2023-08-17T13:10:59.579Z,9.98
2023-08-17T13:14:02.644Z,10.18
2023-08-17T13:17:05.077Z,8.20
2023-08-17T13:20:08.045Z,7.85
2023-08-17T13:23:09.779Z,7.90
2023-08-17T13:26:11.710Z,15.93
2023-08-17T13:29:14.826Z,6.22
2023-08-17T13:32:16.617Z,10.75
2023-08-17T13:35:18.481Z,10.52
2023-08-17T13:38:20.193Z,10.82
2023-08-17T13:41:21.900Z,8.43
2023-08-17T13:44:25.156Z,7.43
2023-08-17T13:47:26.933Z,7.93
2023-08-17T13:50:28.673Z,10.32
2023-08-17T13:53:30.396Z,7.65
2023-08-17T13:56:32.132Z,9.13
2023-08-17T13:59:35.217Z,7.57
2023-08-17T14:02:37.492Z,7.13
2023-08-17T14:05:39.775Z,6.85
2023-08-17T14:08:41.561Z,7.35
2023-08-17T14:11:43.299Z,6.68
2023-08-17T14:14:46.395Z,10.25
2023-08-17T14:17:48.081Z,17.10
2023-08-17T14:20:49.834Z,6.38
2023-08-17T14:23:51.531Z,14.25
2023-08-17T14:26:53.224Z,10.98
2023-08-17T14:29:56.373Z,7.97
2023-08-17T14:33:01.583Z,7.55
2023-08-17T14:36:03.919Z,6.80
2023-08-17T14:39:05.870Z,8.27
2023-08-17T14:42:07.662Z,7.80
2023-08-17T14:45:12.543Z,5.50
2023-08-17T14:48:14.267Z,7.28
2023-08-17T14:51:15.985Z,6.78
2023-08-17T14:54:17.749Z,8.68
2023-08-17T14:57:19.493Z,7.00
2023-08-17T15:00:23.705Z,5.30
2023-08-17T15:03:25.671Z,8.25
2023-08-17T15:06:34.037Z,5.55
2023-08-17T15:09:37.086Z,11.63
2023-08-17T15:12:38.851Z,10.05
2023-08-17T15:15:42.012Z,6.07
2023-08-17T15:18:43.811Z,5.88
2023-08-17T15:21:45.874Z,4.97
2023-08-17T15:24:47.657Z,5.82
2023-08-17T15:27:49.401Z,5.65
2023-08-17T15:31:03.073Z,10.57
2023-08-17T15:34:05.228Z,8.40
2023-08-17T15:37:07.176Z,9.05
2023-08-17T15:40:09.482Z,7.60
2023-08-17T15:43:11.263Z,4.63
2023-08-17T15:46:14.469Z,8.23
2023-08-17T15:49:16.235Z,10.57
2023-08-17T15:52:18.308Z,6.95
2023-08-17T15:55:20.076Z,7.63
2023-08-17T15:58:21.820Z,6.90
2023-08-17T16:01:26.066Z,4.93
2023-08-17T16:04:28.115Z,6.22
2023-08-17T16:07:30.149Z,7.30
2023-08-17T16:10:35.152Z,6.90
2023-08-17T16:13:38.790Z,15.75
2023-08-17T16:16:42.256Z,10.48
2023-08-17T16:19:44.475Z,7.85
2023-08-17T16:22:46.271Z,8.68
2023-08-17T16:25:48.319Z,7.88
2023-08-17T16:28:51.362Z,9.18
2023-08-17T16:32:08.967Z,6.47
2023-08-17T16:35:12.053Z,4.90
2023-08-17T16:38:14.219Z,5.15
2023-08-17T16:41:16.254Z,6.68
2023-08-17T16:44:19.044Z,6.00
2023-08-17T16:47:23.734Z,5.90
2023-08-17T16:50:26.684Z,5.38
2023-08-17T16:53:35.630Z,6.40
2023-08-17T16:56:38.022Z,5.50
2023-08-17T16:59:41.231Z,4.95
2023-08-17T17:02:45.869Z,6.57
2023-08-17T17:05:49.269Z,6.25
2023-08-17T17:08:52.637Z,5.68
2023-08-17T17:11:55.928Z,6.03
2023-08-17T17:14:59.667Z,7.70
2023-08-17T17:18:04.475Z,6.20
2023-08-17T17:21:08.780Z,5.82
2023-08-17T17:24:12.101Z,8.23
2023-08-17T17:27:15.669Z,7.53
2023-08-17T17:30:18.899Z,8.77
2023-08-17T17:33:23.878Z,7.13
2023-08-17T17:36:27.312Z,5.07
2023-08-17T17:39:30.814Z,9.40
2023-08-17T17:42:34.251Z,12.65
2023-08-17T17:45:37.662Z,7.97
2023-08-17T17:48:43.024Z,6.45
2023-08-17T17:51:46.530Z,9.70
2023-08-17T17:54:50.091Z,4.97
2023-08-17T17:57:53.679Z,6.45
2023-08-17T18:00:57.227Z,5.90
2023-08-17T18:04:02.467Z,7.25
2023-08-17T18:07:06.087Z,5.20
2023-08-17T18:10:10.478Z,7.45
2023-08-17T18:13:13.955Z,7.15
2023-08-17T18:16:17.789Z,7.60
2023-08-17T18:19:23.490Z,6.97
2023-08-17T18:22:27.571Z,6.10
2023-08-17T18:25:31.301Z,6.53
2023-08-17T18:28:34.923Z,8.13
2023-08-17T18:31:38.672Z,7.07
2023-08-17T18:34:44.888Z,7.15
2023-08-17T18:37:48.491Z,8.10
2023-08-17T18:40:54.102Z,5.78
2023-08-17T18:43:58.189Z,5.88
2023-08-17T18:47:04.213Z,8.98
2023-08-17T18:50:11.353Z,6.07
2023-08-17T18:53:15.064Z,6.55
2023-08-17T18:56:18.798Z,5.25
2023-08-17T18:59:22.512Z,5.75
2023-08-17T19:02:26.301Z,5.10
2023-08-17T19:05:32.777Z,7.68
2023-08-17T19:08:36.406Z,5.75
2023-08-17T19:11:40.082Z,9.57
2023-08-17T19:14:44.512Z,7.68
2023-08-17T19:17:48.297Z,6.88
2023-08-17T19:20:53.767Z,7.72
2023-08-17T19:23:57.535Z,7.53
2023-08-17T19:27:01.434Z,7.95
2023-08-17T19:30:06.633Z,8.50
2023-08-17T19:33:11.374Z,9.43
2023-08-17T19:36:18.061Z,6.78
2023-08-17T19:39:21.711Z,11.02
2023-08-17T19:42:25.358Z,7.30
2023-08-17T19:45:29.000Z,6.53
2023-08-17T19:48:33.589Z,6.40
2023-08-17T19:51:39.111Z,7.63
2023-08-17T19:54:42.563Z,6.22
2023-08-17T19:57:45.933Z,6.75
2023-08-17T20:00:49.185Z,6.05
2023-08-17T20:03:54.079Z,7.95
2023-08-17T20:06:59.038Z,10.13
2023-08-17T20:10:02.826Z,6.53
2023-08-17T20:13:06.386Z,4.90
2023-08-17T20:16:09.807Z,5.82
2023-08-17T20:19:13.353Z,5.75
2023-08-17T20:22:18.114Z,7.45
2023-08-17T20:25:21.329Z,5.45
2023-08-17T20:28:24.939Z,5.13
2023-08-17T20:31:28.512Z,7.38
2023-08-17T20:34:31.928Z,5.53
2023-08-17T20:37:37.089Z,6.35
2023-08-17T20:40:40.574Z,4.68
2023-08-17T20:43:43.927Z,4.97
2023-08-17T20:46:47.098Z,5.18
2023-08-17T20:49:50.523Z,6.10
2023-08-17T20:52:55.430Z,4.88
2023-08-17T20:55:58.552Z,5.88
2023-08-17T20:59:01.395Z,5.57
2023-08-17T21:02:03.180Z,5.97
2023-08-17T21:05:05.400Z,4.65
2023-08-17T21:08:08.551Z,5.85
2023-08-17T21:11:10.874Z,5.10
2023-08-17T21:14:12.656Z,6.72
2023-08-17T21:17:14.450Z,5.50
2023-08-17T21:20:16.610Z,5.65
2023-08-17T21:23:19.652Z,5.43
2023-08-17T21:26:21.454Z,6.22
2023-08-17T21:29:23.154Z,8.38
2023-08-17T21:32:24.991Z,5.93
2023-08-17T21:35:27.259Z,7.88
2023-08-17T21:38:30.492Z,7.88
2023-08-17T21:41:32.282Z,7.55
2023-08-17T21:44:33.998Z,6.95
2023-08-17T21:47:35.781Z,6.70
2023-08-17T21:50:37.917Z,7.10
2023-08-17T21:53:41.107Z,7.60
2023-08-17T21:56:42.962Z,6.95
2023-08-17T21:59:44.893Z,10.95
2023-08-17T22:02:46.858Z,6.07
2023-08-17T22:05:48.669Z,7.80
2023-08-17T22:08:51.776Z,6.80
2023-08-17T22:11:53.483Z,7.40
2023-08-17T22:14:55.221Z,12.60
2023-08-17T22:17:57.088Z,7.28
2023-08-17T22:20:58.830Z,9.85
2023-08-17T22:24:01.931Z,6.93
2023-08-17T22:27:03.700Z,7.72
2023-08-17T22:30:06.631Z,6.80
2023-08-17T22:33:08.360Z,6.28
2023-08-17T22:36:10.109Z,6.13
2023-08-17T22:39:13.200Z,6.22
2023-08-17T22:42:14.946Z,5.88
2023-08-17T22:45:16.800Z,4.90
2023-08-17T22:48:18.580Z,5.03
2023-08-17T22:51:20.341Z,5.20
2023-08-17T22:54:23.530Z,4.43
2023-08-17T22:57:25.336Z,5.47
2023-08-17T23:00:27.270Z,4.65
2023-08-17T23:03:29.285Z,5.53
2023-08-17T23:06:31.046Z,6.47
2023-08-17T23:09:34.212Z,4.57
2023-08-17T23:12:35.924Z,5.78
2023-08-17T23:15:37.705Z,3.80
2023-08-17T23:18:39.428Z,5.22
2023-08-17T23:21:41.158Z,5.18
2023-08-17T23:24:44.274Z,5.13
2023-08-17T23:27:46.021Z,3.50
2023-08-17T23:30:47.793Z,7.10
2023-08-17T23:33:49.484Z,6.40
2023-08-17T23:36:51.206Z,6.90
2023-08-17T23:39:54.305Z,4.97
2023-08-17T23:42:56.042Z,4.20
2023-08-17T23:45:57.799Z,4.00
2023-08-17T23:48:59.536Z,4.38
2023-08-17T23:52:01.332Z,3.53
2023-08-17T23:55:05.045Z,5.32
2023-08-17T23:58:06.792Z,4.43
